Aérodrome :
LOGIN :

S'inscrire | Disclaimer

   EN    FR    IT 

 










Légende :    VFR   VFR Marginal   IFR   IFR Intensif   IFR Très Intensif
Visi : 
Plafond : 
>= 8 km
>= 3000ft
5 à 8 km
1000 à 3000 ft
1500m à 5 km
500 à 1000 ft
800 à 1500m
200 à 500 ft
< 800m
< 200 ft
Symboles :   Orages  Brouillard  Fortes neiges  Fortes précipitations  Vent > 20 kt
SIGMETs :   Divers  Orages  Givrage  Turbulence  Onde Orograph.  Cendres Volcan.






- Altitude de l'aérodrome : 242 ft
- Code IATA : DUB


EIDW - Dublin

DERNIER METAR :
  • 251600Z 27018KT 9999 VCSH FEW009 FEW018CB SCT150 03/00 Q0994 NOSIG

METARs EXPIRÉS :
  • 251530Z 27020KT 9999 -SHRA FEW013 FEW018CB SCT150 05/00 Q0994 NOSIG
  • 251500Z 27021KT 230V290 9999 FEW013 FEW018CB BKN140 03/M00 Q0994 NOSIG
  • 251430Z 26015G25KT 9999 -SHRA FEW008 SCT012 FEW018CB 04/01 Q0995 NOSIG
  • 251400Z 26013KT 9999 -SHRA FEW009 FEW018CB BKN013 03/01 Q0995 NOSIG
  • 251330Z 25014KT 210V270 9999 VCSH FEW009 FEW018CB SCT090 03/01 Q0995 NOSIG

TAF TAF EIDW
Valide du 25 à 12h jusqu'au 26 à 12h UTC


251100Z 2512/2612 25013KT 9999 FEW010 SCT020
TEMPO 2512/2610 27018G28KT
TEMPO 2512/2604 -SHRAGS SCT018CB



MET'MAP, la Météo Aéronautique d'un coup d'oeil ! - Copyright ORBIFLY Décembre 2007 - Disclaimer

ORBIFLY MET'MAP TEAM :

Programmation & Développement : Alexandra Zaïnal
Sur une idée originale de : Baudouin d'Aumeries
Assistance à la programmation : Marc-Olivier Méhu
Soutien technique & logistique : Manuel Goepfert

Contact : metmap@orbifly.com




SOURCES & CREDITS :

   NOAA